Air Resources Laboratory banner image
Air Resources Laboratory web site National Oceanic and Atmospheric Administration (NOAA)

ca metar


KAAT 180355Z AUTO 00000KT 8SM CLR 21/M03 A3022 RMK AO2 SLP198 T02061033 $=
KACV 180353Z AUTO 15003KT 5SM BR CLR 12/11 A3010 RMK AO2 SLP199 T01170111=
KAPC 180354Z AUTO 14004KT 10SM CLR 17/12 A3001 RMK AO2 SLP154 T01670122=
KAVX 180351Z AUTO 26005KT 10SM CLR 21/17 A3008 RMK AO2 SLP164 T02060167=
KBAB 180358Z AUTO 14005KT 10SM CLR 27/12 A2994 RMK AO2 SLP141 T02680120 $=
KBFL 180354Z 36003KT 10SM CLR 33/12 A2995 RMK AO2 SLP134 T03330117=
KBIH 180356Z AUTO 05007KT 10SM FEW120 32/03 A3011 RMK AO2 SLP136 T03170033=
KBLH 180352Z AUTO 22007KT 10SM CLR 38/17 A2987 RMK AO2 SLP109 T03780172 $=
KBLU 180352Z AUTO 28003KT 10SM CLR 22/08 A3033 RMK AO2 SLP169 T02170083=
KBUR 180353Z 11009KT 10SM CLR 24/21 A3002 RMK AO2 SLP152 T02390206 $=
KBYS 180355Z AUTO 22011G19KT 10SM CLR 35/09 A3001 RMK AO2 SLP106 WND DATA ESTMD
 T03460087=
KCCR 180353Z VRB05KT 10SM CLR 27/01 A2999 RMK AO2 SLP142 T02670011=
KCEC 180356Z AUTO 18011KT 9SM CLR 14/12 A3007 RMK AO2 SLP184 T01440122=
KCIC 180355Z AUTO 00000KT 10SM OVC075 31/09 A2996 RMK AO1=
KCMA 180355Z 27006KT 8SM CLR 22/18 A3002 RMK AO2 SLP171 T02220178=
KCNO 180353Z 26006KT 10SM CLR 26/19 A3003 RMK AO2 SLP163 LAST T02560194=
KCQT 180347Z AUTO 26003KT 10SM BKN011 23/20 A3001 RMK AO2 SLP159 T02330200=
KCRQ 180353Z 00000KT 9SM OVC012 23/21 A3003 RMK AO2 SLP165 T02280206=
KCZZ 180352Z AUTO 21004KT 23/17 A3008 RMK AO1 SLP151 T02330172=
KDAG 180350Z AUTO 24014G21KT 10SM CLR 34/14 A2998 RMK AO2 SLP122 T03440139=
KEDW 180358Z 23016KT 30SM CLR 30/10 A3002 RMK AO2A SLP139 T02970103=
KEED 180356Z AUTO 20010KT 10SM CLR 39/17 A2989 RMK AO2 SLP083 T03890172 $=
KFAT 180353Z 30008KT 10SM CLR 34/14 A2995 RMK AO2 SLP136 T03390139=
KFCH 180350Z AUTO 30007KT 10SM CLR 33/15 A2994 RMK A01=
KFOT 180355Z AUTO 31004KT 9SM CLR 12/10 A3013 RMK AO1=
KFUL 180353Z 00000KT 10SM CLR 25/19 A3001 RMK AO2 SLP159 T02500189=
KHHR 180353Z 24004KT 10SM OVC012 23/20 A3002 RMK AO2 SLP164 T02280200=
KHJO 180353Z AUTO 32007KT 10SM CLR 34/13 A2994 RMK AO2 SLP140 T03390133=
KHWD 180354Z 30005KT 10SM CLR 18/12 A3002 RMK AO2 SLP175 T01780117=
KIPL 180353Z AUTO 15009KT 10SM CLR 37/18 A2985 RMK AO2 SLP108 T03720178=
KIZA 180355Z AUTO 25006KT 10SM CLR 18/13 A3005 RMK AO2=
KLAX 180353Z 24008KT 10SM OVC010 23/20 A3002 RMK AO2 SLP162 T02280200=
KLGB 180353Z 31006KT 10SM CLR 23/19 A3001 RMK AO2 SLP163 T02330194=
KLPC 180356Z AUTO 27006KT 9SM CLR 16/14 A3005 RMK AO2 SLP180 T01610139=
KLVK 180353Z 30005KT 10SM CLR 25/04 A3000 RMK AO2 SLP155 T02500039=
KMAE 180353Z AUTO 31007KT 10SM CLR 31/16 A2995 RMK AO2 SLP138 T03110156=
KMCC 180350Z AUTO 20007KT 10SM CLR 29/07 A2997 RMK AO2=
KMCE 180353Z AUTO 33007KT 10SM CLR 28/16 A2994 RMK AO2 SLP138 T02780161=
KMHR 180345Z 21006KT 10SM SKC 27/08 A2995=
KMHS 180356Z AUTO 07003KT 2 1/2SM HZ OVC050 19/07 A3019 RMK AO2 SLP214
 T01890072=
KMHV 180340Z AUTO 31021G30KT 10SM CLR 30/08 A3004 RMK A01=
KMMH 180355Z AUTO 35003KT 10SM CLR 20/05 A3040 RMK AO2 T02000053=
KMOD 180353Z 34010KT 10SM CLR 32/04 A2995 RMK AO2 SLP141 T03170044=
KMRY 180354Z AUTO 00000KT 8SM OVC007 15/13 A3006 RMK AO2 SLP191 T01500128=
KMYF 180353Z 31004KT 9SM FEW012 23/19 A3004 RMK AO2 SLP169 T02330194=
KMYV 180353Z AUTO 15004KT 10SM CLR 29/14 A2995 RMK AO2 SLP144 T02890144=
KNFG 180355Z AUTO 00000KT 10SM SCT013 23/21 A3003 RMK AO2 SLP167 T02280206 $=
KNID 180356Z 23006KT 10SM CLR 34/07 A2997 RMK AO2 SLP120 T03440072 $=
KNJK 180356Z AUTO 14008KT 10SM CLR 36/18 A2987 RMK AO2 SLP130 T03560178=
KNKX 180355Z 28005KT 9SM CLR 24/19 A3004 RMK AO2 SLP165 T02390194 $=
KNLC 180356Z 33011KT 10SM CLR 33/13 A2995 RMK AO2 SLP139 RH/29 T03330133=
KNRS 180356Z AUTO 29005KT 7SM OVC013 23/19 A3004 RMK AO2 SLP171 T02330194=
KNSI 180357Z AUTO 28008KT 7SM CLR 19/ A3004 RMK AO2 SLP166 T0189 $=
KNTD 180358Z 30005KT 10SM SCT012 21/18 A3002 RMK AO2 SLP167 T02110178 $=
KNUC 180356Z AUTO 24007KT OVC009 21/19 A3005 RMK AO2 SLP172 T02110189 $=
KNUQ 180356Z 31004KT 10SM CLR 19/14 A3003 RMK AO2 SLP171 T01890144 $=
KNXP 180356Z AUTO 21010KT 10SM CLR 33/16 A3006 RMK AO2 SLP138 T03280161 PNO $=
KO54 180355Z AUTO 03003KT 10SM CLR 23/04 A3010 RMK AO1=
KOAK 180353Z 32007KT 10SM FEW006 FEW180 16/13 A3003 RMK AO2 SLP167 T01560133=
KOKB 180352Z AUTO 00000KT 9SM OVC014 24/20 A3002 RMK AO2 SLP165 T02390200=
KONT 180353Z 22011KT 10SM FEW250 26/19 A3003 RMK AO2 SLP151 T02560189=
KOVE 180353Z AUTO 16004KT 10SM CLR 31/15 A2997 RMK AO2 SLP147 T03060150=
KOXR 180351Z AUTO 28007KT 9SM CLR 20/18 A3002 RMK AO2 SLP163 T02000183=
KPAO 180347Z 31005KT 10SM SKC 18/15 A3003 RMK LAST=
KPMD 180353Z 22016KT 10SM CLR 29/13 A3008 RMK AO2 SLP152 T02890128=
KPRB 180353Z AUTO 27006KT 10SM CLR 27/09 A3002 RMK AO2 SLP157 T02670089=
KPSP 180353Z AUTO 32010KT 10SM CLR 37/17 A2991 RMK AO2 SLP122 T03720167=
KPTV 180356Z AUTO 00000KT 10SM CLR 31/16 A2996 RMK AO2 SLP148 T03110156=
KRAL 180353Z AUTO 31004KT 10SM CLR 26/19 A3003 RMK AO2 SLP152 T02610189=
KRBL 180354Z AUTO 19005KT 10SM CLR 28/12 A2996 RMK AO2 SLP140 T02830117=
KRDD 180353Z 08003KT 10SM CLR 30/11 A2995 RMK AO2 SLP136 T03000111=
KRHV 180347Z 31005KT 10SM SKC 22/15 A3001=
KRIV 180358Z AUTO 33005KT 10SM CLR 26/18 A3007 RMK AO2 SLP169 T02570184=
KRNM 180353Z AUTO 30004KT 10SM CLR 23/18 A3006 RMK AO2 SLP164 T02280183=
KSAC 180353Z 21007KT 10SM CLR 27/09 A2995 RMK AO2 SLP141 T02720094=
KSAN 180351Z 30005KT 10SM BKN014 24/20 A3004 RMK AO2 SLP173 T02440200=
KSBA 180353Z 15004KT 10SM CLR 21/17 A3000 RMK AO2 SLP158 T02060172=
KSBD 180350Z 23008KT 6SM HZ FEW060 28/18 A3004 RMK LAST=
KSBP 180356Z AUTO 30005KT 9SM CLR 17/13 A3004 RMK AO2 SLP172 T01670133=
KSCK 180355Z AUTO 29010KT 10SM CLR 29/04 A2996 RMK AO2 SLP145 T02940039=
KSDB 180353Z AUTO 30013G19KT 10SM CLR 26/07 A3025 RMK AO2 SLP181 T02560072 $=
KSDM 180353Z AUTO 28004KT 8SM SCT010 23/20 A3004 RMK AO2 SLP168 T02280200=
KSEE 180347Z VRB06KT 10SM SKC 24/19 A3003=
KSFO 180356Z 29013KT 10SM FEW003 14/12 A3002 RMK AO2 SLP166 T01440117 $=
KSIY 180353Z AUTO 36008KT 9SM OVC050 23/05 A3014 RMK AO2 SLP195 T02280050=
KSJC 180353Z 33006KT 10SM FEW014 21/14 A3002 RMK AO2 SLP164 T02060139 $=
KSLI 180358Z 18003KT 10SM FEW200 23/20 A3001 RMK AO2A SLP165 T02310196=
KSMF 180353Z 19010KT 10SM CLR 27/12 A2994 RMK AO2 SLP137 T02670117=
KSMO 180351Z VRB04KT 10SM OVC009 24/20 A3002 RMK AO2 SLP163 T02440200=
KSMX 180351Z AUTO 30004KT 6SM BR CLR 17/14 A3005 RMK AO2 SLP178 T01670144=
KSNA 180353Z 20008KT 9SM CLR 23/19 A3002 RMK AO2 SLP166 T02280189=
KSNS 180353Z AUTO 31010KT 6SM BR CLR 16/13 A3004 RMK AO2 SLP183 T01560133=
KSQL 180347Z 35004KT 10SM SKC 18/13 A3002 RMK LAST=
KSTS 180353Z AUTO 16007KT 10SM CLR 16/12 A3000 RMK AO2 SLP154 T01560117=
KSUU 180358Z AUTO 23016KT 10SM CLR 21/10 A2994 RMK AO2 SLP145 T02080097 $=
KSVE 180355Z AUTO 30007KT 10SM CLR 26/04 A3021 RMK AO2=
KTRK 180355Z AUTO 13003KT 10SM CLR 17/05 A3036 RMK AO2=
KTRM 180352Z AUTO 28003KT 10SM CLR 33/19 A2984 RMK AO2 SLP107 T03330189=
KTVL 180353Z AUTO 00000KT 10SM CLR 18/07 A3037 RMK AO2 SLP226 T01780067 $=
KUKI 180356Z AUTO 00000KT 10SM CLR 25/07 A3001 RMK AO2 SLP155 T02500067=
KVBG 180358Z AUTO 35005KT 9SM OVC004 15/14 A3006 RMK AO2 SLP182 T01500138=
KVCB 180353Z AUTO 10SM CLR 28/04 A2996 RMK AO2 SLP142 T02780044=
KVIS 180356Z AUTO 30005KT 10SM CLR 31/17 A2994 RMK AO2 SLP142 T03110167=
KVNY 180351Z 09005KT 10SM CLR 26/19 A3001 RMK AO2 SLP153 T02560189=
KWJF 180356Z 24016KT 10SM CLR 29/11 A3005 RMK AO2 SLP152 T02890106=
KWVI 180353Z AUTO 20004KT 10SM CLR 13/12 A3005 RMK AO2 SLP176 T01330117 $=